Terminal Aerodrome Forecast
Issued by NWS Bismarck, ND

Home | Current Version | Previous Version | Text Only | Print | Product List | Glossary On
Versions: 1 2 3 4 5 6 7 8 9 10 11 12 13 14 15 16 17 18
000
FTUS43 KBIS 272300 AAA
TAFISN
TAF AMD
KISN 272321Z 2723/2824 34012G21KT P6SM SCT150
     FM280200 04005KT P6SM SCT080
     FM280800 10004KT 6SM BR SCT150
     FM281400 17008KT P6SM BKN140
     FM281900 21010KT P6SM VCSH BKN200
     FM282300 25014KT P6SM BKN110=

USA.gov is the U.S. government's official web portal to all federal, state and local government web resources and services.